sensor_id;sensor_type;location;lat;lon;timestamp;P1;durP1;ratioP1;P2;durP2;ratioP2
58643;SDS011;44411;49.994;8.660;2023-08-17T00:00:54;22.08;;;7.40;;
58643;SDS011;44411;49.994;8.660;2023-08-17T00:03:19;15.23;;;6.50;;
58643;SDS011;44411;49.994;8.660;2023-08-17T00:05:44;8.70;;;6.10;;
58643;SDS011;44411;49.994;8.660;2023-08-17T00:08:10;8.73;;;6.13;;
58643;SDS011;44411;49.994;8.660;2023-08-17T00:10:35;11.52;;;6.30;;
58643;SDS011;44411;49.994;8.660;2023-08-17T00:13:00;10.50;;;6.67;;
58643;SDS011;44411;49.994;8.660;2023-08-17T00:15:27;14.20;;;7.07;;
58643;SDS011;44411;49.994;8.660;2023-08-17T00:17:52;26.00;;;7.77;;
58643;SDS011;44411;49.994;8.660;2023-08-17T00:20:17;18.00;;;6.80;;
58643;SDS011;44411;49.994;8.660;2023-08-17T00:22:42;15.90;;;7.80;;
58643;SDS011;44411;49.994;8.660;2023-08-17T00:25:08;19.00;;;7.72;;
58643;SDS011;44411;49.994;8.660;2023-08-17T00:27:33;19.92;;;7.80;;
58643;SDS011;44411;49.994;8.660;2023-08-17T00:29:58;21.20;;;8.15;;
58643;SDS011;44411;49.994;8.660;2023-08-17T00:32:23;11.50;;;7.03;;
58643;SDS011;44411;49.994;8.660;2023-08-17T00:34:49;19.40;;;8.20;;
58643;SDS011;44411;49.994;8.660;2023-08-17T00:37:14;10.57;;;6.77;;
58643;SDS011;44411;49.994;8.660;2023-08-17T00:39:39;12.00;;;6.87;;
58643;SDS011;44411;49.994;8.660;2023-08-17T00:42:04;11.07;;;6.13;;
58643;SDS011;44411;49.994;8.660;2023-08-17T00:44:29;11.77;;;6.73;;
58643;SDS011;44411;49.994;8.660;2023-08-17T00:46:55;12.70;;;6.67;;
58643;SDS011;44411;49.994;8.660;2023-08-17T00:49:20;24.05;;;6.65;;
58643;SDS011;44411;49.994;8.660;2023-08-17T00:51:46;22.25;;;7.20;;
58643;SDS011;44411;49.994;8.660;2023-08-17T00:54:11;11.35;;;6.82;;
58643;SDS011;44411;49.994;8.660;2023-08-17T00:56:37;19.27;;;8.07;;
58643;SDS011;44411;49.994;8.660;2023-08-17T00:59:02;10.00;;;6.30;;
58643;SDS011;44411;49.994;8.660;2023-08-17T01:01:27;16.37;;;7.67;;
58643;SDS011;44411;49.994;8.660;2023-08-17T01:03:52;15.97;;;8.67;;
58643;SDS011;44411;49.994;8.660;2023-08-17T01:06:18;16.58;;;7.30;;
58643;SDS011;44411;49.994;8.660;2023-08-17T01:08:43;15.10;;;8.35;;
58643;SDS011;44411;49.994;8.660;2023-08-17T01:16:05;20.27;;;8.73;;
58643;SDS011;44411;49.994;8.660;2023-08-17T01:18:33;19.00;;;9.30;;
58643;SDS011;44411;49.994;8.660;2023-08-17T01:20:59;20.85;;;9.43;;
58643;SDS011;44411;49.994;8.660;2023-08-17T01:23:25;19.40;;;9.13;;
58643;SDS011;44411;49.994;8.660;2023-08-17T01:25:50;18.47;;;9.67;;
58643;SDS011;44411;49.994;8.660;2023-08-17T01:28:15;15.00;;;9.80;;
58643;SDS011;44411;49.994;8.660;2023-08-17T01:30:47;12.60;;;9.05;;
58643;SDS011;44411;49.994;8.660;2023-08-17T01:33:17;12.25;;;9.20;;
58643;SDS011;44411;49.994;8.660;2023-08-17T01:35:50;30.90;;;10.05;;
58643;SDS011;44411;49.994;8.660;2023-08-17T01:38:18;14.07;;;9.65;;
58643;SDS011;44411;49.994;8.660;2023-08-17T01:40:45;16.35;;;9.18;;
58643;SDS011;44411;49.994;8.660;2023-08-17T01:43:10;16.45;;;10.10;;
58643;SDS011;44411;49.994;8.660;2023-08-17T01:45:36;21.50;;;11.45;;
58643;SDS011;44411;49.994;8.660;2023-08-17T01:48:01;26.53;;;11.23;;
58643;SDS011;44411;49.994;8.660;2023-08-17T01:50:27;25.25;;;11.80;;
58643;SDS011;44411;49.994;8.660;2023-08-17T01:52:52;19.93;;;11.50;;
58643;SDS011;44411;49.994;8.660;2023-08-17T01:55:20;20.17;;;12.10;;
58643;SDS011;44411;49.994;8.660;2023-08-17T01:57:46;24.33;;;13.40;;
58643;SDS011;44411;49.994;8.660;2023-08-17T02:00:11;24.23;;;12.03;;
58643;SDS011;44411;49.994;8.660;2023-08-17T02:02:36;18.45;;;10.82;;
58643;SDS011;44411;49.994;8.660;2023-08-17T02:05:02;18.20;;;10.07;;
58643;SDS011;44411;49.994;8.660;2023-08-17T02:07:28;17.35;;;10.18;;
58643;SDS011;44411;49.994;8.660;2023-08-17T02:09:53;21.25;;;10.10;;
58643;SDS011;44411;49.994;8.660;2023-08-17T02:12:18;22.63;;;12.00;;
58643;SDS011;44411;49.994;8.660;2023-08-17T02:14:43;29.03;;;14.97;;
58643;SDS011;44411;49.994;8.660;2023-08-17T02:17:08;31.07;;;15.37;;
58643;SDS011;44411;49.994;8.660;2023-08-17T02:19:34;32.38;;;13.85;;
58643;SDS011;44411;49.994;8.660;2023-08-17T02:21:59;41.20;;;16.70;;
58643;SDS011;44411;49.994;8.660;2023-08-17T02:24:25;37.03;;;16.13;;
58643;SDS011;44411;49.994;8.660;2023-08-17T02:26:50;35.08;;;16.58;;
58643;SDS011;44411;49.994;8.660;2023-08-17T02:29:15;34.60;;;16.33;;
58643;SDS011;44411;49.994;8.660;2023-08-17T02:31:40;32.50;;;16.53;;
58643;SDS011;44411;49.994;8.660;2023-08-17T02:34:06;34.83;;;17.07;;
58643;SDS011;44411;49.994;8.660;2023-08-17T02:36:34;36.50;;;16.93;;
58643;SDS011;44411;49.994;8.660;2023-08-17T02:38:59;41.22;;;18.50;;
58643;SDS011;44411;49.994;8.660;2023-08-17T02:41:24;38.50;;;18.37;;
58643;SDS011;44411;49.994;8.660;2023-08-17T02:43:49;35.53;;;17.57;;
58643;SDS011;44411;49.994;8.660;2023-08-17T02:46:14;38.43;;;17.37;;
58643;SDS011;44411;49.994;8.660;2023-08-17T02:48:40;46.70;;;18.33;;
58643;SDS011;44411;49.994;8.660;2023-08-17T02:51:05;38.70;;;17.33;;
58643;SDS011;44411;49.994;8.660;2023-08-17T02:53:30;41.80;;;17.60;;
58643;SDS011;44411;49.994;8.660;2023-08-17T02:55:55;50.50;;;17.97;;
58643;SDS011;44411;49.994;8.660;2023-08-17T02:58:20;45.77;;;18.37;;
58643;SDS011;44411;49.994;8.660;2023-08-17T03:00:46;55.47;;;17.97;;
58643;SDS011;44411;49.994;8.660;2023-08-17T03:03:11;73.82;;;20.25;;
58643;SDS011;44411;49.994;8.660;2023-08-17T03:05:36;57.13;;;18.38;;
58643;SDS011;44411;49.994;8.660;2023-08-17T03:08:02;50.10;;;19.00;;
58643;SDS011;44411;49.994;8.660;2023-08-17T03:10:27;63.40;;;20.38;;
58643;SDS011;44411;49.994;8.660;2023-08-17T03:12:52;66.60;;;18.87;;
58643;SDS011;44411;49.994;8.660;2023-08-17T03:15:17;66.37;;;18.40;;
58643;SDS011;44411;49.994;8.660;2023-08-17T03:17:42;60.87;;;18.27;;
58643;SDS011;44411;49.994;8.660;2023-08-17T03:20:08;67.20;;;19.43;;
58643;SDS011;44411;49.994;8.660;2023-08-17T03:22:34;55.35;;;17.98;;
58643;SDS011;44411;49.994;8.660;2023-08-17T03:24:59;54.33;;;18.20;;
58643;SDS011;44411;49.994;8.660;2023-08-17T03:27:24;75.37;;;19.50;;
58643;SDS011;44411;49.994;8.660;2023-08-17T03:29:50;46.63;;;17.58;;
58643;SDS011;44411;49.994;8.660;2023-08-17T03:32:15;66.57;;;18.73;;
58643;SDS011;44411;49.994;8.660;2023-08-17T03:34:40;67.90;;;19.53;;
58643;SDS011;44411;49.994;8.660;2023-08-17T03:37:05;56.10;;;19.50;;
58643;SDS011;44411;49.994;8.660;2023-08-17T03:39:31;77.00;;;21.08;;
58643;SDS011;44411;49.994;8.660;2023-08-17T03:41:56;51.70;;;20.13;;
58643;SDS011;44411;49.994;8.660;2023-08-17T03:44:21;58.67;;;19.67;;
58643;SDS011;44411;49.994;8.660;2023-08-17T03:46:46;45.87;;;19.13;;
58643;SDS011;44411;49.994;8.660;2023-08-17T03:49:11;51.73;;;19.77;;
58643;SDS011;44411;49.994;8.660;2023-08-17T03:51:37;47.93;;;20.17;;
58643;SDS011;44411;49.994;8.660;2023-08-17T03:54:02;55.23;;;19.90;;
58643;SDS011;44411;49.994;8.660;2023-08-17T03:56:27;59.20;;;20.17;;
58643;SDS011;44411;49.994;8.660;2023-08-17T03:58:53;45.67;;;19.03;;
58643;SDS011;44411;49.994;8.660;2023-08-17T04:01:19;53.03;;;19.15;;
58643;SDS011;44411;49.994;8.660;2023-08-17T04:03:44;50.30;;;21.57;;
58643;SDS011;44411;49.994;8.660;2023-08-17T04:06:10;48.03;;;20.17;;
58643;SDS011;44411;49.994;8.660;2023-08-17T04:08:36;48.28;;;21.23;;
58643;SDS011;44411;49.994;8.660;2023-08-17T04:11:01;59.72;;;21.95;;
58643;SDS011;44411;49.994;8.660;2023-08-17T04:13:26;52.80;;;21.37;;
58643;SDS011;44411;49.994;8.660;2023-08-17T04:15:52;50.05;;;20.88;;
58643;SDS011;44411;49.994;8.660;2023-08-17T04:18:17;55.35;;;20.27;;
58643;SDS011;44411;49.994;8.660;2023-08-17T04:20:42;53.23;;;21.93;;
58643;SDS011;44411;49.994;8.660;2023-08-17T04:23:08;57.83;;;21.23;;
58643;SDS011;44411;49.994;8.660;2023-08-17T04:25:33;45.23;;;18.83;;
58643;SDS011;44411;49.994;8.660;2023-08-17T04:27:58;39.85;;;19.33;;
58643;SDS011;44411;49.994;8.660;2023-08-17T04:30:23;50.43;;;20.67;;
58643;SDS011;44411;49.994;8.660;2023-08-17T04:32:49;46.40;;;19.10;;
58643;SDS011;44411;49.994;8.660;2023-08-17T04:35:17;38.65;;;17.50;;
58643;SDS011;44411;49.994;8.660;2023-08-17T04:37:43;44.63;;;18.17;;
58643;SDS011;44411;49.994;8.660;2023-08-17T04:40:08;47.47;;;20.87;;
58643;SDS011;44411;49.994;8.660;2023-08-17T04:42:33;44.10;;;19.42;;
58643;SDS011;44411;49.994;8.660;2023-08-17T04:44:58;37.73;;;19.17;;
58643;SDS011;44411;49.994;8.660;2023-08-17T04:47:23;35.97;;;17.37;;
58643;SDS011;44411;49.994;8.660;2023-08-17T04:49:49;42.20;;;17.92;;
58643;SDS011;44411;49.994;8.660;2023-08-17T04:52:14;42.13;;;17.37;;
58643;SDS011;44411;49.994;8.660;2023-08-17T04:54:39;39.33;;;16.83;;
58643;SDS011;44411;49.994;8.660;2023-08-17T04:57:05;40.23;;;17.83;;
58643;SDS011;44411;49.994;8.660;2023-08-17T04:59:30;40.25;;;17.35;;
58643;SDS011;44411;49.994;8.660;2023-08-17T05:01:55;31.67;;;15.67;;
58643;SDS011;44411;49.994;8.660;2023-08-17T05:04:21;41.87;;;17.23;;
58643;SDS011;44411;49.994;8.660;2023-08-17T05:06:46;32.27;;;16.37;;
58643;SDS011;44411;49.994;8.660;2023-08-17T05:09:11;30.50;;;15.27;;
58643;SDS011;44411;49.994;8.660;2023-08-17T05:11:37;37.60;;;15.63;;
58643;SDS011;44411;49.994;8.660;2023-08-17T05:14:02;34.10;;;15.93;;
58643;SDS011;44411;49.994;8.660;2023-08-17T05:16:28;39.47;;;16.42;;
58643;SDS011;44411;49.994;8.660;2023-08-17T05:18:53;37.85;;;16.40;;
58643;SDS011;44411;49.994;8.660;2023-08-17T05:21:18;47.70;;;16.20;;
58643;SDS011;44411;49.994;8.660;2023-08-17T05:23:44;33.35;;;16.42;;
58643;SDS011;44411;49.994;8.660;2023-08-17T05:26:09;35.10;;;15.50;;
58643;SDS011;44411;49.994;8.660;2023-08-17T05:28:34;33.38;;;15.45;;
58643;SDS011;44411;49.994;8.660;2023-08-17T05:31:06;40.60;;;16.27;;
58643;SDS011;44411;49.994;8.660;2023-08-17T05:33:31;30.85;;;15.35;;
58643;SDS011;44411;49.994;8.660;2023-08-17T05:36:00;30.23;;;15.02;;
58643;SDS011;44411;49.994;8.660;2023-08-17T05:38:25;32.17;;;14.55;;
58643;SDS011;44411;49.994;8.660;2023-08-17T05:40:55;26.85;;;14.10;;
58643;SDS011;44411;49.994;8.660;2023-08-17T05:45:46;23.40;;;14.10;;
58643;SDS011;44411;49.994;8.660;2023-08-17T05:48:11;25.70;;;13.27;;
58643;SDS011;44411;49.994;8.660;2023-08-17T05:50:36;28.70;;;14.50;;
58643;SDS011;44411;49.994;8.660;2023-08-17T05:53:02;30.13;;;15.20;;
58643;SDS011;44411;49.994;8.660;2023-08-17T05:55:27;28.50;;;14.50;;
58643;SDS011;44411;49.994;8.660;2023-08-17T05:57:52;38.60;;;16.53;;
58643;SDS011;44411;49.994;8.660;2023-08-17T06:00:17;28.58;;;14.32;;
58643;SDS011;44411;49.994;8.660;2023-08-17T06:02:42;29.17;;;15.27;;
58643;SDS011;44411;49.994;8.660;2023-08-17T06:05:08;30.00;;;14.98;;
58643;SDS011;44411;49.994;8.660;2023-08-17T06:07:34;32.20;;;16.02;;
58643;SDS011;44411;49.994;8.660;2023-08-17T06:09:59;30.23;;;16.52;;
58643;SDS011;44411;49.994;8.660;2023-08-17T06:12:24;36.30;;;18.77;;
58643;SDS011;44411;49.994;8.660;2023-08-17T06:14:49;33.10;;;17.40;;
58643;SDS011;44411;49.994;8.660;2023-08-17T06:17:15;38.17;;;17.90;;
58643;SDS011;44411;49.994;8.660;2023-08-17T06:19:40;43.73;;;18.50;;
58643;SDS011;44411;49.994;8.660;2023-08-17T06:22:05;49.78;;;19.58;;
58643;SDS011;44411;49.994;8.660;2023-08-17T06:24:30;44.57;;;18.67;;
58643;SDS011;44411;49.994;8.660;2023-08-17T06:26:56;40.38;;;18.88;;
58643;SDS011;44411;49.994;8.660;2023-08-17T06:29:21;46.47;;;20.77;;
58643;SDS011;44411;49.994;8.660;2023-08-17T06:31:46;54.15;;;20.02;;
58643;SDS011;44411;49.994;8.660;2023-08-17T06:34:11;48.07;;;20.53;;
58643;SDS011;44411;49.994;8.660;2023-08-17T06:36:37;52.78;;;20.52;;
58643;SDS011;44411;49.994;8.660;2023-08-17T06:39:03;43.17;;;20.90;;
58643;SDS011;44411;49.994;8.660;2023-08-17T06:41:29;45.85;;;20.85;;
58643;SDS011;44411;49.994;8.660;2023-08-17T06:43:54;37.77;;;19.67;;
58643;SDS011;44411;49.994;8.660;2023-08-17T06:46:19;32.63;;;17.33;;
58643;SDS011;44411;49.994;8.660;2023-08-17T06:48:45;35.55;;;17.38;;
58643;SDS011;44411;49.994;8.660;2023-08-17T06:51:10;37.47;;;16.88;;
58643;SDS011;44411;49.994;8.660;2023-08-17T06:53:35;35.43;;;16.87;;
58643;SDS011;44411;49.994;8.660;2023-08-17T06:56:00;34.53;;;15.87;;
58643;SDS011;44411;49.994;8.660;2023-08-17T06:58:25;27.90;;;14.65;;
58643;SDS011;44411;49.994;8.660;2023-08-17T07:00:51;20.23;;;13.03;;
58643;SDS011;44411;49.994;8.660;2023-08-17T07:03:16;20.13;;;12.95;;
58643;SDS011;44411;49.994;8.660;2023-08-17T07:05:42;21.90;;;12.60;;
58643;SDS011;44411;49.994;8.660;2023-08-17T07:08:07;18.55;;;11.85;;
58643;SDS011;44411;49.994;8.660;2023-08-17T07:10:32;18.47;;;12.10;;
58643;SDS011;44411;49.994;8.660;2023-08-17T07:12:57;20.37;;;12.30;;
58643;SDS011;44411;49.994;8.660;2023-08-17T07:15:23;16.70;;;11.85;;
58643;SDS011;44411;49.994;8.660;2023-08-17T07:17:48;19.47;;;11.83;;
58643;SDS011;44411;49.994;8.660;2023-08-17T07:20:13;17.23;;;11.80;;
58643;SDS011;44411;49.994;8.660;2023-08-17T07:22:38;19.23;;;12.43;;
58643;SDS011;44411;49.994;8.660;2023-08-17T07:25:03;19.23;;;12.87;;
58643;SDS011;44411;49.994;8.660;2023-08-17T07:27:29;19.23;;;13.07;;
58643;SDS011;44411;49.994;8.660;2023-08-17T07:29:54;19.33;;;12.90;;
58643;SDS011;44411;49.994;8.660;2023-08-17T07:32:19;17.10;;;11.90;;
58643;SDS011;44411;49.994;8.660;2023-08-17T07:34:46;17.90;;;12.77;;
58643;SDS011;44411;49.994;8.660;2023-08-17T07:37:11;17.40;;;12.57;;
58643;SDS011;44411;49.994;8.660;2023-08-17T07:39:36;16.60;;;12.70;;
58643;SDS011;44411;49.994;8.660;2023-08-17T07:42:01;20.50;;;12.03;;
58643;SDS011;44411;49.994;8.660;2023-08-17T07:44:27;15.15;;;12.07;;
58643;SDS011;44411;49.994;8.660;2023-08-17T07:46:53;16.00;;;12.10;;
58643;SDS011;44411;49.994;8.660;2023-08-17T07:49:18;17.93;;;13.53;;
58643;SDS011;44411;49.994;8.660;2023-08-17T07:51:45;14.35;;;11.85;;
58643;SDS011;44411;49.994;8.660;2023-08-17T07:54:10;18.08;;;14.27;;
58643;SDS011;44411;49.994;8.660;2023-08-17T07:56:36;16.23;;;12.70;;
58643;SDS011;44411;49.994;8.660;2023-08-17T07:59:01;15.33;;;12.43;;
58643;SDS011;44411;49.994;8.660;2023-08-17T08:01:26;15.63;;;11.80;;
58643;SDS011;44411;49.994;8.660;2023-08-17T08:03:51;21.10;;;13.00;;
58643;SDS011;44411;49.994;8.660;2023-08-17T08:06:16;17.13;;;12.63;;
58643;SDS011;44411;49.994;8.660;2023-08-17T08:08:42;20.23;;;13.43;;
58643;SDS011;44411;49.994;8.660;2023-08-17T08:11:07;16.80;;;13.40;;
58643;SDS011;44411;49.994;8.660;2023-08-17T08:13:32;14.57;;;12.20;;
58643;SDS011;44411;49.994;8.660;2023-08-17T08:16:00;18.17;;;13.83;;
58643;SDS011;44411;49.994;8.660;2023-08-17T08:18:25;17.60;;;14.75;;
58643;SDS011;44411;49.994;8.660;2023-08-17T08:20:51;22.50;;;16.17;;
58643;SDS011;44411;49.994;8.660;2023-08-17T08:23:16;21.73;;;17.37;;
58643;SDS011;44411;49.994;8.660;2023-08-17T08:25:41;20.77;;;17.98;;
58643;SDS011;44411;49.994;8.660;2023-08-17T08:28:06;23.67;;;17.97;;
58643;SDS011;44411;49.994;8.660;2023-08-17T08:30:32;18.40;;;16.40;;
58643;SDS011;44411;49.994;8.660;2023-08-17T08:32:57;18.73;;;16.75;;
58643;SDS011;44411;49.994;8.660;2023-08-17T08:35:23;16.67;;;14.88;;
58643;SDS011;44411;49.994;8.660;2023-08-17T08:37:49;18.58;;;13.05;;
58643;SDS011;44411;49.994;8.660;2023-08-17T08:40:14;16.87;;;15.07;;
58643;SDS011;44411;49.994;8.660;2023-08-17T08:42:41;19.98;;;14.90;;
58643;SDS011;44411;49.994;8.660;2023-08-17T08:45:06;16.88;;;15.07;;
58643;SDS011;44411;49.994;8.660;2023-08-17T08:47:32;16.73;;;15.05;;
58643;SDS011;44411;49.994;8.660;2023-08-17T08:50:00;13.98;;;12.57;;
58643;SDS011;44411;49.994;8.660;2023-08-17T08:52:28;15.38;;;13.98;;
58643;SDS011;44411;49.994;8.660;2023-08-17T08:54:57;14.35;;;12.95;;
58643;SDS011;44411;49.994;8.660;2023-08-17T08:57:23;14.63;;;13.13;;
58643;SDS011;44411;49.994;8.660;2023-08-17T08:59:48;15.77;;;13.53;;
58643;SDS011;44411;49.994;8.660;2023-08-17T09:02:15;16.63;;;14.93;;
58643;SDS011;44411;49.994;8.660;2023-08-17T09:04:44;14.43;;;12.98;;
58643;SDS011;44411;49.994;8.660;2023-08-17T09:07:10;12.60;;;11.32;;
58643;SDS011;44411;49.994;8.660;2023-08-17T09:09:36;12.35;;;11.23;;
58643;SDS011;44411;49.994;8.660;2023-08-17T09:12:02;12.75;;;11.52;;
58643;SDS011;44411;49.994;8.660;2023-08-17T09:14:27;15.13;;;13.52;;
58643;SDS011;44411;49.994;8.660;2023-08-17T09:16:53;16.00;;;14.40;;
58643;SDS011;44411;49.994;8.660;2023-08-17T09:19:18;14.68;;;13.27;;
58643;SDS011;44411;49.994;8.660;2023-08-17T09:21:43;12.18;;;10.85;;
58643;SDS011;44411;49.994;8.660;2023-08-17T09:24:09;13.90;;;10.90;;
58643;SDS011;44411;49.994;8.660;2023-08-17T09:26:34;12.73;;;11.43;;
58643;SDS011;44411;49.994;8.660;2023-08-17T09:29:00;13.73;;;12.38;;
58643;SDS011;44411;49.994;8.660;2023-08-17T09:31:26;13.35;;;11.93;;
58643;SDS011;44411;49.994;8.660;2023-08-17T09:33:55;10.70;;;9.68;;
58643;SDS011;44411;49.994;8.660;2023-08-17T09:36:21;9.90;;;8.87;;
58643;SDS011;44411;49.994;8.660;2023-08-17T09:38:47;9.05;;;7.72;;
58643;SDS011;44411;49.994;8.660;2023-08-17T09:41:13;8.75;;;7.78;;
58643;SDS011;44411;49.994;8.660;2023-08-17T09:43:38;8.80;;;7.90;;
58643;SDS011;44411;49.994;8.660;2023-08-17T09:46:04;8.13;;;7.23;;
58643;SDS011;44411;49.994;8.660;2023-08-17T09:48:29;8.50;;;7.60;;
58643;SDS011;44411;49.994;8.660;2023-08-17T09:50:56;10.17;;;7.43;;
58643;SDS011;44411;49.994;8.660;2023-08-17T09:53:22;8.27;;;6.15;;
58643;SDS011;44411;49.994;8.660;2023-08-17T09:55:47;10.00;;;6.67;;
58643;SDS011;44411;49.994;8.660;2023-08-17T09:58:13;7.57;;;6.70;;
58643;SDS011;44411;49.994;8.660;2023-08-17T10:00:50;11.98;;;6.38;;
58643;SDS011;44411;49.994;8.660;2023-08-17T10:03:16;9.73;;;5.03;;
58643;SDS011;44411;49.994;8.660;2023-08-17T10:05:46;8.20;;;6.07;;
58643;SDS011;44411;49.994;8.660;2023-08-17T10:08:12;7.18;;;5.53;;
58643;SDS011;44411;49.994;8.660;2023-08-17T10:10:41;8.23;;;5.80;;
58643;SDS011;44411;49.994;8.660;2023-08-17T10:15:33;8.50;;;5.40;;
58643;SDS011;44411;49.994;8.660;2023-08-17T10:18:07;6.50;;;4.80;;
58643;SDS011;44411;49.994;8.660;2023-08-17T10:20:34;7.20;;;4.85;;
58643;SDS011;44411;49.994;8.660;2023-08-17T10:23:04;8.95;;;5.05;;
58643;SDS011;44411;49.994;8.660;2023-08-17T10:25:32;6.78;;;5.28;;
58643;SDS011;44411;49.994;8.660;2023-08-17T10:27:58;8.18;;;6.25;;
58643;SDS011;44411;49.994;8.660;2023-08-17T10:30:25;6.28;;;4.90;;
58643;SDS011;44411;49.994;8.660;2023-08-17T10:32:50;6.00;;;5.03;;
58643;SDS011;44411;49.994;8.660;2023-08-17T10:35:15;6.40;;;5.27;;
58643;SDS011;44411;49.994;8.660;2023-08-17T10:37:41;5.63;;;4.40;;
58643;SDS011;44411;49.994;8.660;2023-08-17T10:40:06;7.13;;;5.50;;
58643;SDS011;44411;49.994;8.660;2023-08-17T10:44:58;7.45;;;4.90;;
58643;SDS011;44411;49.994;8.660;2023-08-17T10:47:26;5.65;;;4.07;;
58643;SDS011;44411;49.994;8.660;2023-08-17T10:49:59;8.52;;;5.68;;
58643;SDS011;44411;49.994;8.660;2023-08-17T10:54:54;7.07;;;5.00;;
58643;SDS011;44411;49.994;8.660;2023-08-17T10:57:24;6.85;;;4.60;;
58643;SDS011;44411;49.994;8.660;2023-08-17T11:00:05;7.10;;;5.13;;
58643;SDS011;44411;49.994;8.660;2023-08-17T11:02:32;6.65;;;4.40;;
58643;SDS011;44411;49.994;8.660;2023-08-17T11:04:58;6.93;;;4.50;;
58643;SDS011;44411;49.994;8.660;2023-08-17T11:07:23;7.97;;;4.10;;
58643;SDS011;44411;49.994;8.660;2023-08-17T11:09:50;7.20;;;5.72;;
58643;SDS011;44411;49.994;8.660;2023-08-17T11:12:27;7.68;;;5.00;;
58643;SDS011;44411;49.994;8.660;2023-08-17T11:14:53;6.72;;;4.13;;
58643;SDS011;44411;49.994;8.660;2023-08-17T11:17:22;5.85;;;3.80;;
58643;SDS011;44411;49.994;8.660;2023-08-17T11:19:47;6.53;;;4.38;;
58643;SDS011;44411;49.994;8.660;2023-08-17T11:22:15;4.78;;;3.78;;
58643;SDS011;44411;49.994;8.660;2023-08-17T11:24:41;6.35;;;4.20;;
58643;SDS011;44411;49.994;8.660;2023-08-17T11:27:07;8.70;;;4.30;;
58643;SDS011;44411;49.994;8.660;2023-08-17T11:29:32;7.53;;;4.13;;
58643;SDS011;44411;49.994;8.660;2023-08-17T11:31:58;6.13;;;3.47;;
58643;SDS011;44411;49.994;8.660;2023-08-17T11:34:23;6.97;;;4.00;;
58643;SDS011;44411;49.994;8.660;2023-08-17T11:36:48;5.73;;;4.27;;
58643;SDS011;44411;49.994;8.660;2023-08-17T11:39:13;5.43;;;3.57;;
58643;SDS011;44411;49.994;8.660;2023-08-17T11:41:39;4.43;;;3.00;;
58643;SDS011;44411;49.994;8.660;2023-08-17T11:44:04;4.70;;;3.20;;
58643;SDS011;44411;49.994;8.660;2023-08-17T11:46:29;4.93;;;3.13;;
58643;SDS011;44411;49.994;8.660;2023-08-17T11:48:55;5.00;;;3.33;;
58643;SDS011;44411;49.994;8.660;2023-08-17T11:51:30;7.25;;;3.58;;
58643;SDS011;44411;49.994;8.660;2023-08-17T11:53:58;7.05;;;3.35;;
58643;SDS011;44411;49.994;8.660;2023-08-17T11:56:23;5.13;;;3.40;;
58643;SDS011;44411;49.994;8.660;2023-08-17T11:58:48;5.47;;;3.33;;
58643;SDS011;44411;49.994;8.660;2023-08-17T12:01:13;5.07;;;3.40;;
58643;SDS011;44411;49.994;8.660;2023-08-17T12:03:40;5.15;;;3.00;;
58643;SDS011;44411;49.994;8.660;2023-08-17T12:06:06;3.67;;;2.78;;
58643;SDS011;44411;49.994;8.660;2023-08-17T12:08:31;4.90;;;3.10;;
58643;SDS011;44411;49.994;8.660;2023-08-17T12:10:57;6.27;;;2.93;;
58643;SDS011;44411;49.994;8.660;2023-08-17T12:13:33;5.25;;;2.50;;
58643;SDS011;44411;49.994;8.660;2023-08-17T12:15:59;4.07;;;2.75;;
58643;SDS011;44411;49.994;8.660;2023-08-17T12:18:25;5.30;;;3.00;;
58643;SDS011;44411;49.994;8.660;2023-08-17T12:20:53;4.38;;;2.83;;
58643;SDS011;44411;49.994;8.660;2023-08-17T12:23:19;4.85;;;2.75;;
58643;SDS011;44411;49.994;8.660;2023-08-17T12:25:44;5.03;;;3.00;;
58643;SDS011;44411;49.994;8.660;2023-08-17T12:28:12;5.38;;;3.15;;
58643;SDS011;44411;49.994;8.660;2023-08-17T12:30:37;7.25;;;2.92;;
58643;SDS011;44411;49.994;8.660;2023-08-17T12:33:02;3.30;;;2.40;;
58643;SDS011;44411;49.994;8.660;2023-08-17T12:35:29;5.13;;;2.75;;
58643;SDS011;44411;49.994;8.660;2023-08-17T12:37:54;4.78;;;2.65;;
58643;SDS011;44411;49.994;8.660;2023-08-17T12:40:20;5.37;;;2.73;;
58643;SDS011;44411;49.994;8.660;2023-08-17T12:42:45;5.20;;;2.92;;
58643;SDS011;44411;49.994;8.660;2023-08-17T12:45:11;4.25;;;2.67;;
58643;SDS011;44411;49.994;8.660;2023-08-17T12:47:36;5.22;;;2.70;;
58643;SDS011;44411;49.994;8.660;2023-08-17T12:50:02;6.18;;;3.20;;
58643;SDS011;44411;49.994;8.660;2023-08-17T12:52:28;4.88;;;2.88;;
58643;SDS011;44411;49.994;8.660;2023-08-17T12:54:54;6.32;;;3.13;;
58643;SDS011;44411;49.994;8.660;2023-08-17T12:57:20;5.70;;;2.80;;
58643;SDS011;44411;49.994;8.660;2023-08-17T12:59:45;4.55;;;2.67;;
58643;SDS011;44411;49.994;8.660;2023-08-17T13:02:10;4.60;;;2.70;;
58643;SDS011;44411;49.994;8.660;2023-08-17T13:04:36;4.87;;;2.57;;
58643;SDS011;44411;49.994;8.660;2023-08-17T13:07:01;5.85;;;3.20;;
58643;SDS011;44411;49.994;8.660;2023-08-17T13:09:27;4.32;;;2.80;;
58643;SDS011;44411;49.994;8.660;2023-08-17T13:11:52;4.37;;;2.90;;
58643;SDS011;44411;49.994;8.660;2023-08-17T13:14:17;6.40;;;2.60;;
58643;SDS011;44411;49.994;8.660;2023-08-17T13:16:42;5.97;;;2.73;;
58643;SDS011;44411;49.994;8.660;2023-08-17T13:19:07;4.50;;;2.80;;
58643;SDS011;44411;49.994;8.660;2023-08-17T13:21:33;3.50;;;2.60;;
58643;SDS011;44411;49.994;8.660;2023-08-17T13:23:58;6.37;;;2.57;;
58643;SDS011;44411;49.994;8.660;2023-08-17T13:26:23;4.33;;;2.63;;
58643;SDS011;44411;49.994;8.660;2023-08-17T13:28:48;4.53;;;2.87;;
58643;SDS011;44411;49.994;8.660;2023-08-17T13:31:14;4.00;;;2.70;;
58643;SDS011;44411;49.994;8.660;2023-08-17T13:33:39;3.88;;;2.70;;
58643;SDS011;44411;49.994;8.660;2023-08-17T13:36:04;7.97;;;2.67;;
58643;SDS011;44411;49.994;8.660;2023-08-17T13:38:29;5.38;;;2.90;;
58643;SDS011;44411;49.994;8.660;2023-08-17T13:40:55;6.03;;;2.60;;
58643;SDS011;44411;49.994;8.660;2023-08-17T13:43:20;3.90;;;2.30;;
58643;SDS011;44411;49.994;8.660;2023-08-17T13:45:45;4.03;;;2.80;;
58643;SDS011;44411;49.994;8.660;2023-08-17T13:48:10;4.80;;;2.93;;
58643;SDS011;44411;49.994;8.660;2023-08-17T13:50:37;4.13;;;2.83;;
58643;SDS011;44411;49.994;8.660;2023-08-17T13:53:02;3.65;;;2.50;;
58643;SDS011;44411;49.994;8.660;2023-08-17T13:55:27;5.70;;;2.73;;
58643;SDS011;44411;49.994;8.660;2023-08-17T13:57:54;4.00;;;2.60;;
58643;SDS011;44411;49.994;8.660;2023-08-17T14:00:20;4.80;;;2.78;;
58643;SDS011;44411;49.994;8.660;2023-08-17T14:02:45;4.13;;;2.40;;
58643;SDS011;44411;49.994;8.660;2023-08-17T14:05:11;4.60;;;2.77;;
58643;SDS011;44411;49.994;8.660;2023-08-17T14:07:36;3.73;;;2.73;;
58643;SDS011;44411;49.994;8.660;2023-08-17T14:10:01;4.47;;;2.30;;
58643;SDS011;44411;49.994;8.660;2023-08-17T14:12:27;5.68;;;2.38;;
58643;SDS011;44411;49.994;8.660;2023-08-17T14:14:52;3.63;;;2.47;;
58643;SDS011;44411;49.994;8.660;2023-08-17T14:17:17;4.70;;;2.50;;
58643;SDS011;44411;49.994;8.660;2023-08-17T14:19:43;3.87;;;2.43;;
58643;SDS011;44411;49.994;8.660;2023-08-17T14:22:08;3.40;;;2.10;;
58643;SDS011;44411;49.994;8.660;2023-08-17T14:24:33;4.10;;;2.43;;
58643;SDS011;44411;49.994;8.660;2023-08-17T14:26:58;5.17;;;2.30;;
58643;SDS011;44411;49.994;8.660;2023-08-17T14:29:23;4.83;;;2.60;;
58643;SDS011;44411;49.994;8.660;2023-08-17T14:31:49;4.00;;;2.37;;
58643;SDS011;44411;49.994;8.660;2023-08-17T14:34:14;5.53;;;2.30;;
58643;SDS011;44411;49.994;8.660;2023-08-17T14:36:40;3.95;;;2.60;;